Time;durP1;ratioP1;P1;durP2;ratioP2;P2;SDS_P1;SDS_P2;PMS_P1;PMS_P2;Temp;Humidity;BMP_temperature;BMP_pressure;BME280_temperature;BME280_humidity;BME280_pressure;Samples;Min_cycle;Max_cycle;Signal;HPM_P1;HPM_P2
2021/12/21 00:00:28;;;;;;;;;20.00;16.00;;;;;;;;4966334;28;45506;-79
2021/12/21 00:02:54;;;;;;;;;17.25;13.75;;;;;;;;4967494;28;45396;-79
2021/12/21 00:05:21;;;;;;;;;17.75;12.25;;;;;;;;4970873;28;45710;-79
2021/12/21 00:07:47;;;;;;;;;18.75;17.25;;;;;;;;4968392;28;46215;-79
2021/12/21 00:10:13;;;;;;;;;24.00;17.75;;;;;;;;4959492;28;45889;-79
2021/12/21 00:12:47;;;;;;;;;26.75;15.00;;;;;;;;4956962;28;46007;-79
2021/12/21 00:15:23;;;;;;;;;21.75;16.50;;;;;;;;4957795;28;45796;-80
2021/12/21 00:18:04;;;;;;;;;21.75;15.25;;;;;;;;4955026;28;46270;-80
2021/12/21 00:20:58;;;;;;;;;17.25;16.50;;;;;;;;4955187;28;45359;-79
2021/12/21 00:23:30;;;;;;;;;17.75;16.00;;;;;;;;4969229;28;45390;-80
2021/12/21 00:26:00;;;;;;;;;19.00;17.50;;;;;;;;4967542;28;45618;-79
2021/12/21 00:28:26;;;;;;;;;19.00;18.25;;;;;;;;4972786;28;46515;-79
2021/12/21 00:30:51;;;;;;;;;22.00;16.00;;;;;;;;4957987;28;45486;-79
2021/12/21 00:33:17;;;;;;;;;23.00;16.75;;;;;;;;4957165;28;45453;-79
2021/12/21 00:35:43;;;;;;;;;19.00;15.00;;;;;;;;4955720;28;45830;-79
2021/12/21 00:38:08;;;;;;;;;22.75;17.25;;;;;;;;4955319;28;45586;-79
2021/12/21 00:40:33;;;;;;;;;20.67;16.67;;;;;;;;4956957;28;45498;-79
2021/12/21 00:42:58;;;;;;;;;19.00;15.00;;;;;;;;4960625;28;45345;-79
2021/12/21 00:45:24;;;;;;;;;23.33;15.33;;;;;;;;4965459;28;45331;-79
2021/12/21 00:47:49;;;;;;;;;20.50;15.25;;;;;;;;4966571;28;45791;-78
2021/12/21 00:50:17;;;;;;;;;18.25;15.00;;;;;;;;4967809;28;46030;-79
2021/12/21 00:52:47;;;;;;;;;17.00;15.00;;;;;;;;4956954;28;45441;-79
2021/12/21 00:55:13;;;;;;;;;20.25;14.50;;;;;;;;4964252;28;45482;-79
2021/12/21 00:57:38;;;;;;;;;21.50;16.25;;;;;;;;4965624;28;45838;-79
2021/12/21 01:00:05;;;;;;;;;16.67;15.00;;;;;;;;4965534;28;45404;-79
2021/12/21 01:02:30;;;;;;;;;21.00;14.25;;;;;;;;4968184;28;45414;-79
2021/12/21 01:04:57;;;;;;;;;22.50;13.50;;;;;;;;4956229;28;45387;-79
2021/12/21 01:07:30;;;;;;;;;21.00;14.00;;;;;;;;4989540;28;47614;-79
2021/12/21 01:12:59;;;;;;;;;19.75;16.25;;;;;;;;5030805;28;45693;-79
2021/12/21 01:18:01;;;;;;;;;19.25;13.75;;;;;;;;5019454;28;45443;-79
2021/12/21 01:20:35;;;;;;;;;15.50;13.75;;;;;;;;5015825;28;45913;-79
2021/12/21 01:28:33;;;;;;;;;24.50;18.00;;;;;;;;5030411;28;45831;-79
2021/12/21 01:31:14;;;;;;;;;23.50;18.00;;;;;;;;5022146;28;45650;-79
2021/12/21 01:36:14;;;;;;;;;19.00;12.00;;;;;;;;5019142;28;46950;-79
2021/12/21 01:38:53;;;;;;;;;21.00;15.25;;;;;;;;5016801;28;46091;-79
2021/12/21 01:41:30;;;;;;;;;18.75;15.50;;;;;;;;4997940;28;45496;-78
2021/12/21 01:49:38;;;;;;;;;19.00;14.00;;;;;;;;4964137;28;45406;-79
2021/12/21 01:52:08;;;;;;;;;23.00;19.00;;;;;;;;4985709;28;45594;-79
2021/12/21 01:54:33;;;;;;;;;19.50;13.25;;;;;;;;4987258;28;45531;-78
2021/12/21 01:56:58;;;;;;;;;17.50;14.00;;;;;;;;4987418;28;45548;-79
2021/12/21 01:59:24;;;;;;;;;18.00;14.33;;;;;;;;4992267;28;45855;-78
2021/12/21 02:01:49;;;;;;;;;19.00;13.67;;;;;;;;4986965;28;45465;-78
2021/12/21 02:04:17;;;;;;;;;30.33;15.67;;;;;;;;4987921;28;45486;-79
2021/12/21 02:06:43;;;;;;;;;17.00;12.50;;;;;;;;4987518;28;45668;-79
2021/12/21 02:09:08;;;;;;;;;16.50;14.00;;;;;;;;4987335;28;46308;-79
2021/12/21 02:11:33;;;;;;;;;18.33;14.00;;;;;;;;4989736;28;45574;-79
2021/12/21 02:13:59;;;;;;;;;23.50;15.25;;;;;;;;4990632;28;45471;-78
2021/12/21 02:16:43;;;;;;;;;14.25;12.50;;;;;;;;4993620;28;45765;-79
2021/12/21 02:19:36;;;;;;;;;24.25;15.25;;;;;;;;4993360;28;46471;-78
2021/12/21 02:22:05;;;;;;;;;21.25;14.50;;;;;;;;4992912;28;45472;-79
2021/12/21 02:24:38;;;;;;;;;16.25;14.25;;;;;;;;4966627;28;45481;-79
2021/12/21 02:27:24;;;;;;;;;15.75;13.50;;;;;;;;4964938;28;45512;-79
2021/12/21 02:29:49;;;;;;;;;14.50;13.00;;;;;;;;4959739;28;45543;-79
2021/12/21 02:32:15;;;;;;;;;20.33;16.00;;;;;;;;4968513;28;45538;-79
2021/12/21 02:34:44;;;;;;;;;21.50;14.50;;;;;;;;4957507;28;45477;-79
2021/12/21 02:37:10;;;;;;;;;14.50;11.50;;;;;;;;4963678;28;45537;-79
2021/12/21 02:39:35;;;;;;;;;14.00;12.25;;;;;;;;4964919;28;45626;-81
2021/12/21 02:42:00;;;;;;;;;17.33;12.33;;;;;;;;4964571;28;45368;-79
2021/12/21 02:44:25;;;;;;;;;17.33;14.67;;;;;;;;4969293;28;45447;-79
2021/12/21 02:46:51;;;;;;;;;15.67;14.33;;;;;;;;5036546;28;45733;-79
2021/12/21 02:49:16;;;;;;;;;15.75;12.50;;;;;;;;4954871;28;48038;-79
2021/12/21 02:51:43;;;;;;;;;17.00;14.75;;;;;;;;4956807;28;45345;-79
2021/12/21 02:54:09;;;;;;;;;16.50;14.50;;;;;;;;5020692;27;45439;-79
2021/12/21 02:56:35;;;;;;;;;19.50;13.75;;;;;;;;4959274;28;45640;-78
2021/12/21 02:59:00;;;;;;;;;22.00;14.00;;;;;;;;4954616;28;46238;-79
2021/12/21 03:01:26;;;;;;;;;17.25;13.75;;;;;;;;4965353;28;45394;-79
2021/12/21 03:03:52;;;;;;;;;18.00;13.00;;;;;;;;4964796;28;45326;-79
2021/12/21 03:07:23;;;;;;;;;19.25;13.25;;;;;;;;4964616;28;45921;-80
2021/12/21 03:09:12;;;;;;;;;15.25;13.75;;;;;;;;4953611;28;46412;-79
2021/12/21 03:11:48;;;;;;;;;16.25;11.50;;;;;;;;4967505;28;45645;-79
2021/12/21 03:14:14;;;;;;;;;22.25;13.00;;;;;;;;4951727;28;45548;-79
2021/12/21 03:16:40;;;;;;;;;21.50;16.75;;;;;;;;4955899;28;46313;-79
2021/12/21 03:19:06;;;;;;;;;17.33;13.33;;;;;;;;4955896;28;46564;-79
2021/12/21 03:21:32;;;;;;;;;16.00;13.50;;;;;;;;4957606;28;45917;-79
2021/12/21 03:23:57;;;;;;;;;19.75;13.50;;;;;;;;4966316;28;45462;-79
2021/12/21 03:26:23;;;;;;;;;18.67;12.00;;;;;;;;4953838;28;45558;-79
2021/12/21 03:28:48;;;;;;;;;16.75;13.50;;;;;;;;4959787;28;45699;-79
2021/12/21 03:31:13;;;;;;;;;17.67;13.00;;;;;;;;4955983;28;45485;-79
2021/12/21 03:33:39;;;;;;;;;12.33;12.33;;;;;;;;4986258;28;45446;-79
2021/12/21 03:36:05;;;;;;;;;17.33;15.33;;;;;;;;4952122;28;45487;-79
2021/12/21 03:38:31;;;;;;;;;18.50;15.50;;;;;;;;4967439;28;45830;-79
2021/12/21 03:41:03;;;;;;;;;12.50;12.50;;;;;;;;4965942;28;45880;-79
2021/12/21 03:43:31;;;;;;;;;16.50;13.00;;;;;;;;4964941;28;45496;-78
2021/12/21 03:46:12;;;;;;;;;16.25;13.25;;;;;;;;4963090;28;45706;-78
2021/12/21 03:48:38;;;;;;;;;22.25;17.25;;;;;;;;4963745;28;46182;-78
2021/12/21 03:51:03;;;;;;;;;20.00;14.00;;;;;;;;4963406;28;45359;-79
2021/12/21 03:53:28;;;;;;;;;17.75;16.00;;;;;;;;4967390;28;45501;-79
2021/12/21 03:56:08;;;;;;;;;18.25;12.50;;;;;;;;4965840;28;45431;-79
2021/12/21 03:58:33;;;;;;;;;20.50;18.25;;;;;;;;4965180;28;46627;-79
2021/12/21 04:00:59;;;;;;;;;17.67;13.33;;;;;;;;4967769;28;45556;-79
2021/12/21 04:03:24;;;;;;;;;20.00;17.00;;;;;;;;4962411;28;45686;-78
2021/12/21 04:05:49;;;;;;;;;18.00;14.33;;;;;;;;5030328;28;45609;-78
2021/12/21 04:08:14;;;;;;;;;19.67;13.33;;;;;;;;4949378;28;47172;-79
2021/12/21 04:10:40;;;;;;;;;21.00;18.00;;;;;;;;4957694;28;45729;-78
2021/12/21 04:13:09;;;;;;;;;27.67;17.33;;;;;;;;4958315;28;45468;-79
2021/12/21 04:15:42;;;;;;;;;19.50;14.50;;;;;;;;4960632;28;45594;-79
2021/12/21 04:18:07;;;;;;;;;16.00;13.25;;;;;;;;4967422;28;46216;-79
2021/12/21 04:20:32;;;;;;;;;20.00;15.33;;;;;;;;4954720;28;45607;-78
2021/12/21 04:22:57;;;;;;;;;16.00;12.67;;;;;;;;4956394;28;45708;-79
2021/12/21 04:25:23;;;;;;;;;22.67;13.00;;;;;;;;4966002;28;45486;-79
2021/12/21 04:27:48;;;;;;;;;15.33;12.00;;;;;;;;4966021;28;45461;-79
2021/12/21 04:30:13;;;;;;;;;15.67;12.33;;;;;;;;4966495;28;45888;-79
2021/12/21 04:32:38;;;;;;;;;21.00;14.33;;;;;;;;4954696;28;45534;-79
2021/12/21 04:35:04;;;;;;;;;16.33;13.00;;;;;;;;4969409;28;45392;-78
2021/12/21 04:37:29;;;;;;;;;16.50;13.25;;;;;;;;4967384;28;45382;-79
2021/12/21 04:40:02;;;;;;;;;24.67;16.33;;;;;;;;4966347;28;45390;-79
2021/12/21 04:42:27;;;;;;;;;21.50;14.25;;;;;;;;4965456;28;45658;-79
2021/12/21 04:44:52;;;;;;;;;17.00;13.00;;;;;;;;4955568;28;45399;-79
2021/12/21 04:47:17;;;;;;;;;16.00;13.00;;;;;;;;4969706;28;46013;-79
2021/12/21 04:49:43;;;;;;;;;15.33;12.00;;;;;;;;4968048;28;45409;-79
2021/12/21 04:52:08;;;;;;;;;15.00;13.00;;;;;;;;4965785;28;45552;-78
2021/12/21 04:54:33;;;;;;;;;14.00;13.00;;;;;;;;4965800;28;45300;-78
2021/12/21 04:56:59;;;;;;;;;19.50;12.50;;;;;;;;4964432;28;47436;-79
2021/12/21 04:59:24;;;;;;;;;16.00;11.67;;;;;;;;4970332;28;45428;-79
2021/12/21 05:01:50;;;;;;;;;14.25;12.25;;;;;;;;4968171;28;45308;-78
2021/12/21 05:04:15;;;;;;;;;15.00;11.75;;;;;;;;4965731;28;45734;-79
2021/12/21 05:06:41;;;;;;;;;13.67;13.00;;;;;;;;4965255;28;45787;-79
2021/12/21 05:09:12;;;;;;;;;15.67;15.00;;;;;;;;4965319;28;45335;-78
2021/12/21 05:11:37;;;;;;;;;20.00;12.00;;;;;;;;4982511;28;45525;-78
2021/12/21 05:14:06;;;;;;;;;26.50;15.50;;;;;;;;4968373;28;45434;-79
2021/12/21 05:16:32;;;;;;;;;15.50;11.00;;;;;;;;4966432;28;45371;-79
2021/12/21 05:18:57;;;;;;;;;17.00;13.00;;;;;;;;4965241;28;45598;-79
2021/12/21 05:21:22;;;;;;;;;15.00;12.00;;;;;;;;4965355;28;45434;-78
2021/12/21 05:23:47;;;;;;;;;21.00;12.33;;;;;;;;4966833;28;45433;-78
2021/12/21 05:26:12;;;;;;;;;16.67;15.33;;;;;;;;4968249;28;46089;-79
2021/12/21 05:28:37;;;;;;;;;15.67;13.67;;;;;;;;4966312;28;45536;-78
2021/12/21 05:31:03;;;;;;;;;20.00;13.33;;;;;;;;4963580;28;45526;-78
2021/12/21 05:33:29;;;;;;;;;14.67;12.00;;;;;;;;4964502;28;45657;-78
2021/12/21 05:35:55;;;;;;;;;16.50;14.00;;;;;;;;4951144;28;47520;-79
2021/12/21 05:38:29;;;;;;;;;15.50;12.00;;;;;;;;4969076;28;46011;-78
2021/12/21 05:40:54;;;;;;;;;14.25;12.25;;;;;;;;4969003;28;45622;-79
2021/12/21 05:43:21;;;;;;;;;17.00;12.75;;;;;;;;4958019;28;45415;-78
2021/12/21 05:45:46;;;;;;;;;15.00;13.50;;;;;;;;4960815;28;45510;-79
2021/12/21 05:48:11;;;;;;;;;18.50;16.50;;;;;;;;4965549;28;45846;-79
2021/12/21 05:50:37;;;;;;;;;16.50;13.75;;;;;;;;4969143;28;45528;-78
2021/12/21 05:53:02;;;;;;;;;17.00;12.50;;;;;;;;4955659;28;45447;-79
2021/12/21 05:55:27;;;;;;;;;14.50;12.25;;;;;;;;4959341;28;46511;-78
2021/12/21 05:58:16;;;;;;;;;15.33;12.33;;;;;;;;4960135;28;45469;-78
2021/12/21 06:00:41;;;;;;;;;13.50;11.75;;;;;;;;4964500;28;45375;-78
2021/12/21 06:03:07;;;;;;;;;15.67;12.67;;;;;;;;4966401;28;45425;-78
2021/12/21 06:05:32;;;;;;;;;18.33;13.33;;;;;;;;4954715;28;46586;-78
2021/12/21 06:07:57;;;;;;;;;18.33;16.00;;;;;;;;4968488;28;45448;-78
2021/12/21 06:10:46;;;;;;;;;13.75;9.50;;;;;;;;4957378;28;45991;-78
2021/12/21 06:16:07;;;;;;;;;17.00;13.00;;;;;;;;4964969;28;46470;-78
2021/12/21 06:24:42;;;;;;;;;13.00;11.25;;;;;;;;4966564;28;45556;-78
2021/12/21 06:26:36;;;;;;;;;13.00;12.00;;;;;;;;4954157;28;45369;-78
2021/12/21 06:29:01;;;;;;;;;15.00;13.25;;;;;;;;4961634;28;45430;-78
2021/12/21 06:31:27;;;;;;;;;18.50;12.50;;;;;;;;4976447;28;45921;-78
2021/12/21 06:33:52;;;;;;;;;15.25;12.75;;;;;;;;4959893;28;45463;-79
2021/12/21 06:36:18;;;;;;;;;20.50;12.00;;;;;;;;4955291;28;47465;-77
2021/12/21 06:38:43;;;;;;;;;15.25;12.00;;;;;;;;4967050;28;45529;-78
2021/12/21 06:41:08;;;;;;;;;15.67;11.00;;;;;;;;4967546;28;45292;-78
2021/12/21 06:43:34;;;;;;;;;16.33;12.00;;;;;;;;4965891;28;45346;-78
2021/12/21 06:46:11;;;;;;;;;12.25;10.50;;;;;;;;4964285;28;45525;-78
2021/12/21 06:51:29;;;;;;;;;19.00;14.00;;;;;;;;4964764;28;45577;-78
2021/12/21 06:53:56;;;;;;;;;18.50;12.25;;;;;;;;5028244;28;50265;-78
2021/12/21 06:56:22;;;;;;;;;20.00;11.25;;;;;;;;4953138;28;45719;-79
2021/12/21 06:58:48;;;;;;;;;18.50;12.00;;;;;;;;4966760;28;45462;-78
2021/12/21 07:01:16;;;;;;;;;16.00;12.00;;;;;;;;4964455;28;45541;-78
2021/12/21 07:03:45;;;;;;;;;17.75;12.75;;;;;;;;4962085;28;45460;-78
2021/12/21 07:06:10;;;;;;;;;15.25;12.25;;;;;;;;4954940;28;46475;-79
2021/12/21 07:08:45;;;;;;;;;17.75;15.00;;;;;;;;4967655;28;46733;-78
2021/12/21 07:12:17;;;;;;;;;24.50;15.50;;;;;;;;4966403;28;45528;-78
2021/12/21 07:19:40;;;;;;;;;17.25;12.00;;;;;;;;4990867;28;45518;-78
2021/12/21 07:22:06;;;;;;;;;11.75;11.75;;;;;;;;5000583;28;45492;-78
2021/12/21 07:24:32;;;;;;;;;19.50;12.00;;;;;;;;5004398;28;45472;-79
2021/12/21 07:26:57;;;;;;;;;19.25;14.50;;;;;;;;5003861;28;48489;-78
2021/12/21 07:29:23;;;;;;;;;15.75;10.00;;;;;;;;4976008;28;46071;-78
2021/12/21 07:31:48;;;;;;;;;15.75;14.00;;;;;;;;5004754;28;45459;-79
2021/12/21 07:34:13;;;;;;;;;16.75;14.75;;;;;;;;5002352;28;45425;-78
2021/12/21 07:36:43;;;;;;;;;20.00;15.00;;;;;;;;4997459;28;45481;-79
2021/12/21 07:39:09;;;;;;;;;16.50;11.50;;;;;;;;4992423;28;46064;-78
2021/12/21 07:41:34;;;;;;;;;15.75;13.00;;;;;;;;4992369;28;45465;-78
2021/12/21 07:43:59;;;;;;;;;19.67;12.00;;;;;;;;4992353;28;45500;-78
2021/12/21 07:46:24;;;;;;;;;19.67;12.00;;;;;;;;4994806;28;46612;-78
2021/12/21 07:48:50;;;;;;;;;15.00;12.67;;;;;;;;4985953;28;45577;-78
2021/12/21 07:51:15;;;;;;;;;19.75;15.00;;;;;;;;4992202;28;45564;-78
2021/12/21 07:53:42;;;;;;;;;24.33;12.00;;;;;;;;5009532;28;45417;-78
2021/12/21 07:56:07;;;;;;;;;15.00;13.25;;;;;;;;4958668;28;46223;-78
2021/12/21 07:58:34;;;;;;;;;15.00;12.67;;;;;;;;4956490;28;46000;-78
2021/12/21 08:01:00;;;;;;;;;15.25;12.50;;;;;;;;4960168;28;45416;-79
2021/12/21 08:03:25;;;;;;;;;20.75;14.50;;;;;;;;4962267;28;45531;-79
2021/12/21 08:05:54;;;;;;;;;16.25;14.75;;;;;;;;4955602;28;46439;-78
2021/12/21 08:08:21;;;;;;;;;16.25;13.00;;;;;;;;4969764;28;45383;-78
2021/12/21 08:11:09;;;;;;;;;19.75;12.25;;;;;;;;4967303;28;45707;-78
2021/12/21 08:13:32;;;;;;;;;18.75;11.00;;;;;;;;4967800;28;45737;-79
2021/12/21 08:15:57;;;;;;;;;21.67;15.00;;;;;;;;4960877;28;45464;-79
2021/12/21 08:18:23;;;;;;;;;22.33;12.67;;;;;;;;4955836;28;45644;-79
2021/12/21 08:20:48;;;;;;;;;15.00;13.33;;;;;;;;4966598;28;45438;-80
2021/12/21 08:23:13;;;;;;;;;18.67;14.67;;;;;;;;4969579;28;45420;-79
2021/12/21 08:25:38;;;;;;;;;17.33;15.33;;;;;;;;4968277;28;46314;-78
2021/12/21 08:28:04;;;;;;;;;19.00;15.00;;;;;;;;4955728;28;45595;-78
2021/12/21 08:30:29;;;;;;;;;16.50;14.75;;;;;;;;4964286;28;45609;-78
2021/12/21 08:32:57;;;;;;;;;18.50;16.00;;;;;;;;4966318;28;45708;-78
2021/12/21 08:35:22;;;;;;;;;15.00;12.25;;;;;;;;4968562;28;45652;-78
2021/12/21 08:38:00;;;;;;;;;18.50;16.25;;;;;;;;4956437;28;45506;-78
2021/12/21 08:40:26;;;;;;;;;22.25;16.75;;;;;;;;4957485;28;45509;-77
2021/12/21 08:42:52;;;;;;;;;22.50;16.25;;;;;;;;4960491;28;45432;-78
2021/12/21 08:45:18;;;;;;;;;20.50;17.00;;;;;;;;4965453;28;45446;-78
2021/12/21 08:47:43;;;;;;;;;20.75;16.75;;;;;;;;4968225;28;45402;-78
2021/12/21 08:50:10;;;;;;;;;16.33;14.33;;;;;;;;4968229;28;45419;-78
2021/12/21 08:52:36;;;;;;;;;18.00;17.00;;;;;;;;4957148;28;45346;-78
2021/12/21 08:55:03;;;;;;;;;22.25;20.25;;;;;;;;4962168;28;46115;-78
2021/12/21 08:57:28;;;;;;;;;18.25;16.25;;;;;;;;4965254;28;45921;-78
2021/12/21 08:59:53;;;;;;;;;20.25;18.00;;;;;;;;4967024;28;45588;-78
2021/12/21 09:02:18;;;;;;;;;23.00;16.67;;;;;;;;4969464;28;45438;-79
2021/12/21 09:04:44;;;;;;;;;17.67;13.00;;;;;;;;4966161;28;47409;-78
2021/12/21 09:07:09;;;;;;;;;21.00;16.00;;;;;;;;4965512;28;45524;-78
2021/12/21 09:09:34;;;;;;;;;17.33;15.33;;;;;;;;4965740;28;45413;-79
2021/12/21 09:12:00;;;;;;;;;21.25;17.75;;;;;;;;4965647;28;45530;-79
2021/12/21 09:14:31;;;;;;;;;17.00;15.25;;;;;;;;4969476;28;45537;-79
2021/12/21 09:16:56;;;;;;;;;20.50;14.75;;;;;;;;4963633;28;45410;-79
2021/12/21 09:19:22;;;;;;;;;14.67;14.67;;;;;;;;4965722;28;45706;-79
2021/12/21 09:21:47;;;;;;;;;15.33;15.00;;;;;;;;4965421;28;45366;-79
2021/12/21 09:24:13;;;;;;;;;23.00;16.33;;;;;;;;4964903;28;45534;-78
2021/12/21 09:26:38;;;;;;;;;16.75;15.00;;;;;;;;4967808;28;45457;-78
2021/12/21 09:29:03;;;;;;;;;22.33;15.00;;;;;;;;4962933;28;45800;-78
2021/12/21 09:31:29;;;;;;;;;16.00;13.25;;;;;;;;4959974;28;45478;-78
2021/12/21 09:33:54;;;;;;;;;21.00;14.00;;;;;;;;4957309;28;45593;-78
2021/12/21 09:36:19;;;;;;;;;16.00;15.67;;;;;;;;4957622;28;45565;-78
2021/12/21 09:38:45;;;;;;;;;13.25;13.00;;;;;;;;4954907;28;45557;-78
2021/12/21 09:41:11;;;;;;;;;18.50;15.00;;;;;;;;4968561;28;45327;-78
2021/12/21 09:43:36;;;;;;;;;20.00;15.25;;;;;;;;4957359;28;45499;-80
2021/12/21 09:46:02;;;;;;;;;20.25;16.50;;;;;;;;4984428;28;45528;-78
2021/12/21 09:48:28;;;;;;;;;21.50;15.50;;;;;;;;4965893;28;45509;-80
2021/12/21 09:50:54;;;;;;;;;17.50;15.75;;;;;;;;4968924;28;45617;-78
2021/12/21 09:53:20;;;;;;;;;22.75;18.75;;;;;;;;4953815;28;45667;-78
2021/12/21 09:55:47;;;;;;;;;16.50;15.25;;;;;;;;4987819;28;46119;-79
2021/12/21 09:58:12;;;;;;;;;22.25;19.75;;;;;;;;4964353;28;45545;-78
2021/12/21 10:00:37;;;;;;;;;17.00;15.33;;;;;;;;4966304;28;45515;-79
2021/12/21 10:03:04;;;;;;;;;16.00;15.00;;;;;;;;4964453;28;45754;-79
2021/12/21 10:05:35;;;;;;;;;21.50;16.25;;;;;;;;4969067;28;45782;-79
2021/12/21 10:08:32;;;;;;;;;21.00;18.00;;;;;;;;4967569;28;45457;-79
2021/12/21 10:10:58;;;;;;;;;20.50;14.25;;;;;;;;4926393;28;45616;-78
2021/12/21 10:13:24;;;;;;;;;22.00;18.00;;;;;;;;4929756;28;45478;-79
2021/12/21 10:15:53;;;;;;;;;19.75;16.25;;;;;;;;4922926;28;46068;-78
2021/12/21 10:18:26;;;;;;;;;20.75;18.00;;;;;;;;4917306;28;45507;-79
2021/12/21 10:20:52;;;;;;;;;19.50;17.75;;;;;;;;4929437;28;45609;-77
2021/12/21 10:23:17;;;;;;;;;23.00;17.75;;;;;;;;4929766;28;45499;-79
2021/12/21 10:26:03;;;;;;;;;18.00;17.33;;;;;;;;4916253;28;45582;-79
2021/12/21 10:28:28;;;;;;;;;23.25;18.50;;;;;;;;4927308;28;45830;-79
2021/12/21 10:30:54;;;;;;;;;20.33;18.00;;;;;;;;4924080;28;45511;-79
2021/12/21 10:33:20;;;;;;;;;21.50;19.25;;;;;;;;4926161;28;45980;-78
2021/12/21 10:35:46;;;;;;;;;29.00;20.00;;;;;;;;4916909;28;45893;-78
2021/12/21 10:38:22;;;;;;;;;21.00;19.25;;;;;;;;4916434;28;45663;-79
2021/12/21 10:40:47;;;;;;;;;22.75;18.00;;;;;;;;4915824;28;45806;-78
2021/12/21 10:43:13;;;;;;;;;28.33;20.33;;;;;;;;4915696;28;46149;-77
2021/12/21 10:45:41;;;;;;;;;23.25;20.75;;;;;;;;4936593;28;45593;-77
2021/12/21 10:48:08;;;;;;;;;24.25;19.75;;;;;;;;4965961;28;45474;-77
2021/12/21 10:50:34;;;;;;;;;24.25;23.00;;;;;;;;4979670;27;45319;-77
2021/12/21 10:52:59;;;;;;;;;25.50;23.00;;;;;;;;4966338;28;45902;-78
2021/12/21 10:55:27;;;;;;;;;25.50;21.00;;;;;;;;4956496;28;45437;-77
2021/12/21 10:58:09;;;;;;;;;24.75;20.50;;;;;;;;4956068;28;45633;-77
2021/12/21 11:00:36;;;;;;;;;25.25;21.25;;;;;;;;4955593;28;45506;-77
2021/12/21 11:03:01;;;;;;;;;22.00;20.00;;;;;;;;4955630;28;45551;-77
2021/12/21 11:05:27;;;;;;;;;21.50;19.25;;;;;;;;4950886;28;45360;-76
2021/12/21 11:08:05;;;;;;;;;23.25;18.00;;;;;;;;4955191;28;45502;-71
2021/12/21 11:10:34;;;;;;;;;24.00;20.25;;;;;;;;4964710;28;45503;-73
2021/12/21 11:13:01;;;;;;;;;24.75;21.75;;;;;;;;4958338;28;45990;-73
2021/12/21 11:15:29;;;;;;;;;22.00;18.50;;;;;;;;4956040;28;46183;-72
2021/12/21 11:18:04;;;;;;;;;28.25;22.25;;;;;;;;4986092;28;45469;-77
2021/12/21 11:20:29;;;;;;;;;29.75;21.75;;;;;;;;4957753;28;45559;-78
2021/12/21 11:22:54;;;;;;;;;28.00;19.67;;;;;;;;4976688;28;45465;-78
2021/12/21 11:25:20;;;;;;;;;26.75;18.25;;;;;;;;4969466;28;45491;-77
2021/12/21 11:27:46;;;;;;;;;24.75;20.75;;;;;;;;4965333;28;45509;-77
2021/12/21 11:30:12;;;;;;;;;25.50;23.50;;;;;;;;4974728;28;45816;-78
2021/12/21 11:32:42;;;;;;;;;26.00;20.00;;;;;;;;4968154;28;45847;-77
2021/12/21 11:37:55;;;;;;;;;23.25;17.50;;;;;;;;4911815;28;45631;-77
2021/12/21 11:40:23;;;;;;;;;21.50;20.25;;;;;;;;4897646;28;45603;-77
2021/12/21 11:42:51;;;;;;;;;23.00;21.75;;;;;;;;4913869;28;45507;-79
2021/12/21 11:45:26;;;;;;;;;23.00;21.50;;;;;;;;4909764;28;46386;-77
2021/12/21 11:48:09;;;;;;;;;20.50;19.00;;;;;;;;4907134;28;45793;-78
2021/12/21 11:50:35;;;;;;;;;25.75;22.25;;;;;;;;4924505;28;46654;-78
2021/12/21 11:53:02;;;;;;;;;23.25;23.25;;;;;;;;4913662;28;45811;-77
2021/12/21 11:55:28;;;;;;;;;24.75;23.25;;;;;;;;4915397;28;46060;-78
2021/12/21 11:58:01;;;;;;;;;25.25;22.00;;;;;;;;4915535;28;45663;-78
2021/12/21 12:00:29;;;;;;;;;27.25;25.00;;;;;;;;4910085;28;45843;-79
2021/12/21 12:02:55;;;;;;;;;24.00;21.75;;;;;;;;4912536;28;46884;-77
2021/12/21 12:05:25;;;;;;;;;31.25;27.00;;;;;;;;4907563;28;46091;-77
2021/12/21 12:07:59;;;;;;;;;28.00;24.00;;;;;;;;4924958;28;45460;-78
2021/12/21 12:10:24;;;;;;;;;28.50;23.75;;;;;;;;4905724;28;45634;-79
2021/12/21 12:12:49;;;;;;;;;30.00;23.50;;;;;;;;4910174;28;45528;-79
2021/12/21 12:15:15;;;;;;;;;23.00;22.33;;;;;;;;4938932;28;45603;-79
2021/12/21 12:17:45;;;;;;;;;28.25;23.50;;;;;;;;4967494;28;45480;-79
2021/12/21 12:20:10;;;;;;;;;26.25;25.00;;;;;;;;4968963;28;45446;-79
2021/12/21 12:22:41;;;;;;;;;32.50;26.50;;;;;;;;4967345;28;46293;-79
2021/12/21 12:25:07;;;;;;;;;28.00;23.75;;;;;;;;4967180;28;45923;-79
2021/12/21 12:27:33;;;;;;;;;20.75;19.25;;;;;;;;4967654;28;45625;-79
2021/12/21 12:29:59;;;;;;;;;31.00;27.00;;;;;;;;4965340;28;45540;-76
2021/12/21 12:32:33;;;;;;;;;30.50;25.00;;;;;;;;4964116;28;48247;-79
2021/12/21 12:35:10;;;;;;;;;33.00;21.25;;;;;;;;4964049;28;46195;-80
2021/12/21 12:37:47;;;;;;;;;27.25;22.25;;;;;;;;4969265;28;45775;-79
2021/12/21 12:40:14;;;;;;;;;23.25;19.50;;;;;;;;4962622;28;45564;-79
2021/12/21 12:42:39;;;;;;;;;23.75;22.25;;;;;;;;4966723;28;46720;-79
2021/12/21 12:45:16;;;;;;;;;31.75;23.50;;;;;;;;4976038;28;45326;-79
2021/12/21 12:47:43;;;;;;;;;22.00;19.75;;;;;;;;4955283;28;45506;-79
2021/12/21 12:50:29;;;;;;;;;26.75;23.50;;;;;;;;4955131;28;45570;-79
2021/12/21 12:52:56;;;;;;;;;29.00;24.00;;;;;;;;4968208;28;45664;-79
2021/12/21 12:55:22;;;;;;;;;23.25;20.00;;;;;;;;4963927;28;46060;-79
2021/12/21 12:57:55;;;;;;;;;22.50;22.25;;;;;;;;4964066;28;45539;-79
2021/12/21 13:00:25;;;;;;;;;21.50;20.50;;;;;;;;4969078;28;45615;-79
2021/12/21 13:02:55;;;;;;;;;26.75;25.00;;;;;;;;4957351;28;45414;-79
2021/12/21 13:05:23;;;;;;;;;31.75;22.75;;;;;;;;4953116;28;45387;-79
2021/12/21 13:07:49;;;;;;;;;27.25;22.75;;;;;;;;4957179;28;45342;-79
2021/12/21 13:10:14;;;;;;;;;28.67;24.00;;;;;;;;4964687;28;45946;-79
2021/12/21 13:12:39;;;;;;;;;27.67;25.00;;;;;;;;4964150;28;46041;-79
2021/12/21 13:15:06;;;;;;;;;33.00;24.00;;;;;;;;4954323;28;45526;-79
2021/12/21 13:17:32;;;;;;;;;25.25;23.00;;;;;;;;4954241;28;45743;-79
2021/12/21 13:19:57;;;;;;;;;28.00;21.67;;;;;;;;4956126;28;45636;-79
2021/12/21 13:22:23;;;;;;;;;24.50;20.50;;;;;;;;4965824;28;45573;-79
2021/12/21 13:24:49;;;;;;;;;28.50;26.25;;;;;;;;4965346;28;45474;-80
2021/12/21 13:27:14;;;;;;;;;26.25;22.00;;;;;;;;4966083;28;45687;-80
2021/12/21 13:29:42;;;;;;;;;22.75;20.00;;;;;;;;4960150;28;45866;-80
2021/12/21 13:32:09;;;;;;;;;25.50;23.25;;;;;;;;4951419;28;46441;-79
2021/12/21 13:34:35;;;;;;;;;26.75;22.25;;;;;;;;4966794;28;45366;-80
2021/12/21 13:37:02;;;;;;;;;27.00;21.50;;;;;;;;4960483;28;45476;-80
2021/12/21 13:39:31;;;;;;;;;29.00;26.75;;;;;;;;4958194;28;46019;-80
2021/12/21 13:42:02;;;;;;;;;27.50;22.75;;;;;;;;4968011;28;45718;-79
2021/12/21 13:44:31;;;;;;;;;21.25;19.75;;;;;;;;4953176;28;45882;-79
2021/12/21 13:46:58;;;;;;;;;23.75;22.75;;;;;;;;4968172;28;45384;-79
2021/12/21 13:49:23;;;;;;;;;23.75;21.00;;;;;;;;4966717;28;45989;-78
2021/12/21 13:51:56;;;;;;;;;27.00;24.67;;;;;;;;4959590;28;46114;-79
2021/12/21 13:54:22;;;;;;;;;24.25;23.00;;;;;;;;4955275;28;45714;-79
2021/12/21 13:56:48;;;;;;;;;29.00;24.50;;;;;;;;4951474;28;45659;-79
2021/12/21 13:59:14;;;;;;;;;22.75;22.25;;;;;;;;4958646;28;45322;-80
2021/12/21 14:01:40;;;;;;;;;30.50;22.00;;;;;;;;4952898;28;47952;-80
2021/12/21 14:04:10;;;;;;;;;25.00;21.50;;;;;;;;4956087;28;46101;-80
2021/12/21 14:06:37;;;;;;;;;27.50;23.25;;;;;;;;4955458;28;45634;-79
2021/12/21 14:09:03;;;;;;;;;29.00;23.75;;;;;;;;4953662;28;45459;-80
2021/12/21 14:11:30;;;;;;;;;25.50;21.50;;;;;;;;4954433;28;45516;-80
2021/12/21 14:13:56;;;;;;;;;22.75;20.25;;;;;;;;4950557;28;45929;-80
2021/12/21 14:16:23;;;;;;;;;27.00;24.25;;;;;;;;4954432;28;45576;-77
2021/12/21 14:18:50;;;;;;;;;24.25;21.00;;;;;;;;4955296;28;45398;-80
2021/12/21 14:21:17;;;;;;;;;28.50;21.75;;;;;;;;4954833;28;45580;-81
2021/12/21 14:23:44;;;;;;;;;24.50;22.25;;;;;;;;4952845;28;45548;-80
2021/12/21 14:26:18;;;;;;;;;31.25;25.50;;;;;;;;4953580;28;45663;-79
2021/12/21 14:29:03;;;;;;;;;22.50;20.50;;;;;;;;4957317;28;45514;-80
2021/12/21 14:31:41;;;;;;;;;27.25;21.75;;;;;;;;4954058;28;45839;-80
2021/12/21 14:34:07;;;;;;;;;30.50;24.00;;;;;;;;4953452;28;45492;-80
2021/12/21 14:36:33;;;;;;;;;25.50;23.75;;;;;;;;4953570;28;45673;-80
2021/12/21 14:39:00;;;;;;;;;24.50;20.25;;;;;;;;4952694;28;45830;-79
2021/12/21 14:41:28;;;;;;;;;32.75;22.50;;;;;;;;4953482;28;45696;-79
2021/12/21 14:44:07;;;;;;;;;25.50;20.75;;;;;;;;4953460;28;45441;-79
2021/12/21 14:46:34;;;;;;;;;35.75;28.75;;;;;;;;4954387;28;45478;-80
2021/12/21 14:49:00;;;;;;;;;26.25;21.25;;;;;;;;4979176;28;45607;-79
2021/12/21 14:51:26;;;;;;;;;33.25;24.25;;;;;;;;4958884;28;46022;-79
2021/12/21 14:54:05;;;;;;;;;27.00;23.00;;;;;;;;4964911;28;45713;-79
2021/12/21 14:56:34;;;;;;;;;22.75;22.75;;;;;;;;4953175;28;45416;-79
2021/12/21 14:59:00;;;;;;;;;39.25;27.00;;;;;;;;4955923;28;45447;-79